sensor_id;sensor_type;location;lat;lon;timestamp;temperature;humidity
3208;DHT22;1616;52.394;9.756;2022-07-05T00:02:08;20.30;1.00
3208;DHT22;1616;52.394;9.756;2022-07-05T00:04:34;20.30;1.00
3208;DHT22;1616;52.394;9.756;2022-07-05T00:06:59;20.40;1.00
3208;DHT22;1616;52.394;9.756;2022-07-05T00:09:55;20.30;1.00
3208;DHT22;1616;52.394;9.756;2022-07-05T00:12:24;20.30;1.00
3208;DHT22;1616;52.394;9.756;2022-07-05T00:14:50;20.30;1.00
3208;DHT22;1616;52.394;9.756;2022-07-05T00:17:16;20.30;1.00
3208;DHT22;1616;52.394;9.756;2022-07-05T00:19:42;20.30;1.00
3208;DHT22;1616;52.394;9.756;2022-07-05T00:22:08;20.20;1.00
3208;DHT22;1616;52.394;9.756;2022-07-05T00:24:34;20.20;1.00
3208;DHT22;1616;52.394;9.756;2022-07-05T00:27:00;20.20;1.00
3208;DHT22;1616;52.394;9.756;2022-07-05T00:29:25;20.20;1.00
3208;DHT22;1616;52.394;9.756;2022-07-05T00:31:51;20.20;1.00
3208;DHT22;1616;52.394;9.756;2022-07-05T00:34:17;20.20;1.00
3208;DHT22;1616;52.394;9.756;2022-07-05T00:36:43;20.20;1.00
3208;DHT22;1616;52.394;9.756;2022-07-05T00:39:09;20.10;1.00
3208;DHT22;1616;52.394;9.756;2022-07-05T00:41:35;20.10;1.00
3208;DHT22;1616;52.394;9.756;2022-07-05T00:44:06;20.10;1.00
3208;DHT22;1616;52.394;9.756;2022-07-05T00:46:33;20.00;1.00
3208;DHT22;1616;52.394;9.756;2022-07-05T00:49:00;20.00;1.00
3208;DHT22;1616;52.394;9.756;2022-07-05T00:51:26;20.00;1.00
3208;DHT22;1616;52.394;9.756;2022-07-05T00:53:54;20.00;1.00
3208;DHT22;1616;52.394;9.756;2022-07-05T00:56:20;20.00;1.00
3208;DHT22;1616;52.394;9.756;2022-07-05T00:58:49;20.00;1.00
3208;DHT22;1616;52.394;9.756;2022-07-05T01:01:15;20.00;1.00
3208;DHT22;1616;52.394;9.756;2022-07-05T01:03:42;19.90;1.00
3208;DHT22;1616;52.394;9.756;2022-07-05T01:06:10;20.00;1.00
3208;DHT22;1616;52.394;9.756;2022-07-05T01:08:41;19.90;1.00
3208;DHT22;1616;52.394;9.756;2022-07-05T01:11:08;19.90;1.00
3208;DHT22;1616;52.394;9.756;2022-07-05T01:13:36;19.90;1.00
3208;DHT22;1616;52.394;9.756;2022-07-05T01:16:02;19.80;1.00
3208;DHT22;1616;52.394;9.756;2022-07-05T01:18:28;19.70;1.00
3208;DHT22;1616;52.394;9.756;2022-07-05T01:20:54;19.70;1.00
3208;DHT22;1616;52.394;9.756;2022-07-05T01:23:22;19.50;1.00
3208;DHT22;1616;52.394;9.756;2022-07-05T01:25:48;19.30;1.00
3208;DHT22;1616;52.394;9.756;2022-07-05T01:28:15;19.10;1.00
3208;DHT22;1616;52.394;9.756;2022-07-05T01:30:42;19.00;1.00
3208;DHT22;1616;52.394;9.756;2022-07-05T01:33:08;18.90;1.00
3208;DHT22;1616;52.394;9.756;2022-07-05T01:35:35;19.00;1.10
3208;DHT22;1616;52.394;9.756;2022-07-05T01:38:01;19.00;1.10
3208;DHT22;1616;52.394;9.756;2022-07-05T01:40:27;19.00;1.20
3208;DHT22;1616;52.394;9.756;2022-07-05T01:42:53;19.00;1.40
3208;DHT22;1616;52.394;9.756;2022-07-05T01:45:19;19.00;1.40
3208;DHT22;1616;52.394;9.756;2022-07-05T01:48:14;19.10;1.40
3208;DHT22;1616;52.394;9.756;2022-07-05T01:53:24;19.20;1.20
3208;DHT22;1616;52.394;9.756;2022-07-05T01:55:52;19.10;1.40
3208;DHT22;1616;52.394;9.756;2022-07-05T01:58:18;19.10;1.50
3208;DHT22;1616;52.394;9.756;2022-07-05T02:00:48;19.10;1.50
3208;DHT22;1616;52.394;9.756;2022-07-05T02:03:15;19.10;1.60
3208;DHT22;1616;52.394;9.756;2022-07-05T02:05:42;19.10;1.60
3208;DHT22;1616;52.394;9.756;2022-07-05T02:08:08;19.20;1.50
3208;DHT22;1616;52.394;9.756;2022-07-05T02:10:38;19.20;1.40
3208;DHT22;1616;52.394;9.756;2022-07-05T02:13:04;19.20;1.30
3208;DHT22;1616;52.394;9.756;2022-07-05T02:15:35;19.20;1.20
3208;DHT22;1616;52.394;9.756;2022-07-05T02:18:02;19.30;1.10
3208;DHT22;1616;52.394;9.756;2022-07-05T02:20:29;19.30;1.20
3208;DHT22;1616;52.394;9.756;2022-07-05T02:22:55;19.20;1.10
3208;DHT22;1616;52.394;9.756;2022-07-05T02:25:21;19.20;1.20
3208;DHT22;1616;52.394;9.756;2022-07-05T02:27:47;19.20;1.20
3208;DHT22;1616;52.394;9.756;2022-07-05T02:30:14;19.20;1.20
3208;DHT22;1616;52.394;9.756;2022-07-05T02:32:40;19.20;1.20
3208;DHT22;1616;52.394;9.756;2022-07-05T02:35:07;19.20;1.10
3208;DHT22;1616;52.394;9.756;2022-07-05T02:37:34;19.20;1.20
3208;DHT22;1616;52.394;9.756;2022-07-05T02:40:00;19.20;1.20
3208;DHT22;1616;52.394;9.756;2022-07-05T02:42:25;19.20;1.20
3208;DHT22;1616;52.394;9.756;2022-07-05T02:44:51;19.10;1.10
3208;DHT22;1616;52.394;9.756;2022-07-05T02:47:16;19.20;1.30
3208;DHT22;1616;52.394;9.756;2022-07-05T02:49:42;19.20;1.30
3208;DHT22;1616;52.394;9.756;2022-07-05T02:52:08;19.20;1.10
3208;DHT22;1616;52.394;9.756;2022-07-05T02:54:36;19.30;1.10
3208;DHT22;1616;52.394;9.756;2022-07-05T02:57:02;19.30;1.00
3208;DHT22;1616;52.394;9.756;2022-07-05T02:59:27;19.40;1.00
3208;DHT22;1616;52.394;9.756;2022-07-05T03:01:53;19.40;1.00
3208;DHT22;1616;52.394;9.756;2022-07-05T03:04:19;19.40;1.00
3208;DHT22;1616;52.394;9.756;2022-07-05T03:06:45;19.40;1.10
3208;DHT22;1616;52.394;9.756;2022-07-05T03:09:10;19.40;1.00
3208;DHT22;1616;52.394;9.756;2022-07-05T03:11:36;19.40;1.00
3208;DHT22;1616;52.394;9.756;2022-07-05T03:14:02;19.40;1.00
3208;DHT22;1616;52.394;9.756;2022-07-05T03:16:28;19.40;1.00
3208;DHT22;1616;52.394;9.756;2022-07-05T03:18:55;19.40;1.00
3208;DHT22;1616;52.394;9.756;2022-07-05T03:21:21;19.40;1.00
3208;DHT22;1616;52.394;9.756;2022-07-05T03:23:46;19.40;1.10
3208;DHT22;1616;52.394;9.756;2022-07-05T03:26:12;19.40;1.20
3208;DHT22;1616;52.394;9.756;2022-07-05T03:28:37;19.40;1.20
3208;DHT22;1616;52.394;9.756;2022-07-05T03:31:03;19.40;1.20
3208;DHT22;1616;52.394;9.756;2022-07-05T03:33:29;19.50;1.20
3208;DHT22;1616;52.394;9.756;2022-07-05T03:35:55;19.50;1.20
3208;DHT22;1616;52.394;9.756;2022-07-05T03:38:20;19.50;1.10
3208;DHT22;1616;52.394;9.756;2022-07-05T03:40:46;19.50;1.10
3208;DHT22;1616;52.394;9.756;2022-07-05T03:43:11;19.40;1.00
3208;DHT22;1616;52.394;9.756;2022-07-05T03:45:37;19.40;1.50
3208;DHT22;1616;52.394;9.756;2022-07-05T03:48:03;19.40;1.30
3208;DHT22;1616;52.394;9.756;2022-07-05T03:50:29;19.20;1.30
3208;DHT22;1616;52.394;9.756;2022-07-05T03:52:55;19.30;1.70
3208;DHT22;1616;52.394;9.756;2022-07-05T03:55:21;19.30;1.50
3208;DHT22;1616;52.394;9.756;2022-07-05T03:57:47;19.30;1.40
3208;DHT22;1616;52.394;9.756;2022-07-05T04:00:13;19.20;1.60
3208;DHT22;1616;52.394;9.756;2022-07-05T04:02:39;19.20;1.90
3208;DHT22;1616;52.394;9.756;2022-07-05T04:05:06;19.30;2.00
3208;DHT22;1616;52.394;9.756;2022-07-05T04:07:32;19.50;2.10
3208;DHT22;1616;52.394;9.756;2022-07-05T04:09:58;19.60;1.50
3208;DHT22;1616;52.394;9.756;2022-07-05T04:12:25;19.60;1.10
3208;DHT22;1616;52.394;9.756;2022-07-05T04:14:52;19.60;1.10
3208;DHT22;1616;52.394;9.756;2022-07-05T04:17:17;19.50;1.10
3208;DHT22;1616;52.394;9.756;2022-07-05T04:19:43;19.60;1.60
3208;DHT22;1616;52.394;9.756;2022-07-05T04:22:09;19.80;1.60
3208;DHT22;1616;52.394;9.756;2022-07-05T04:24:35;20.00;1.20
3208;DHT22;1616;52.394;9.756;2022-07-05T04:27:21;20.10;1.00
3208;DHT22;1616;52.394;9.756;2022-07-05T04:29:47;20.00;1.00
3208;DHT22;1616;52.394;9.756;2022-07-05T04:32:13;20.10;1.00
3208;DHT22;1616;52.394;9.756;2022-07-05T04:34:38;20.20;1.00
3208;DHT22;1616;52.394;9.756;2022-07-05T04:37:04;20.30;1.00
3208;DHT22;1616;52.394;9.756;2022-07-05T04:39:30;20.40;1.00
3208;DHT22;1616;52.394;9.756;2022-07-05T04:41:56;20.60;1.00
3208;DHT22;1616;52.394;9.756;2022-07-05T04:44:22;20.80;1.00
3208;DHT22;1616;52.394;9.756;2022-07-05T04:46:48;21.00;1.00
3208;DHT22;1616;52.394;9.756;2022-07-05T04:49:13;21.20;1.00
3208;DHT22;1616;52.394;9.756;2022-07-05T04:51:39;21.40;1.00
3208;DHT22;1616;52.394;9.756;2022-07-05T04:54:05;21.40;1.00
3208;DHT22;1616;52.394;9.756;2022-07-05T04:56:30;21.50;1.00
3208;DHT22;1616;52.394;9.756;2022-07-05T04:58:56;21.50;1.00
3208;DHT22;1616;52.394;9.756;2022-07-05T05:01:21;21.60;1.00
3208;DHT22;1616;52.394;9.756;2022-07-05T05:03:48;21.60;1.00
3208;DHT22;1616;52.394;9.756;2022-07-05T05:06:14;21.70;1.00
3208;DHT22;1616;52.394;9.756;2022-07-05T05:08:41;21.70;1.00
3208;DHT22;1616;52.394;9.756;2022-07-05T05:11:07;21.70;1.00
3208;DHT22;1616;52.394;9.756;2022-07-05T05:13:33;21.70;1.00
3208;DHT22;1616;52.394;9.756;2022-07-05T05:15:59;22.00;1.00
3208;DHT22;1616;52.394;9.756;2022-07-05T05:18:24;22.60;1.00
3208;DHT22;1616;52.394;9.756;2022-07-05T05:20:53;23.40;1.00
3208;DHT22;1616;52.394;9.756;2022-07-05T05:23:20;24.30;1.00
3208;DHT22;1616;52.394;9.756;2022-07-05T05:25:46;25.10;1.00
3208;DHT22;1616;52.394;9.756;2022-07-05T05:28:12;25.40;1.00
3208;DHT22;1616;52.394;9.756;2022-07-05T05:30:37;25.60;1.00
3208;DHT22;1616;52.394;9.756;2022-07-05T05:33:03;25.70;1.00
3208;DHT22;1616;52.394;9.756;2022-07-05T05:35:28;25.60;1.00
3208;DHT22;1616;52.394;9.756;2022-07-05T05:37:55;25.40;1.00
3208;DHT22;1616;52.394;9.756;2022-07-05T05:40:23;25.10;1.00
3208;DHT22;1616;52.394;9.756;2022-07-05T05:42:50;24.90;1.00
3208;DHT22;1616;52.394;9.756;2022-07-05T05:45:18;25.10;1.00
3208;DHT22;1616;52.394;9.756;2022-07-05T05:47:54;25.60;1.00
3208;DHT22;1616;52.394;9.756;2022-07-05T05:50:46;26.40;1.00
3208;DHT22;1616;52.394;9.756;2022-07-05T05:53:12;27.30;1.00
3208;DHT22;1616;52.394;9.756;2022-07-05T05:55:38;27.60;1.00
3208;DHT22;1616;52.394;9.756;2022-07-05T05:58:18;27.70;1.00
3208;DHT22;1616;52.394;9.756;2022-07-05T06:00:44;27.70;1.00
3208;DHT22;1616;52.394;9.756;2022-07-05T06:03:13;28.10;1.00
3208;DHT22;1616;52.394;9.756;2022-07-05T06:05:39;28.70;1.00
3208;DHT22;1616;52.394;9.756;2022-07-05T06:08:05;29.30;1.00
3208;DHT22;1616;52.394;9.756;2022-07-05T06:10:33;29.90;1.00
3208;DHT22;1616;52.394;9.756;2022-07-05T06:13:03;30.40;1.00
3208;DHT22;1616;52.394;9.756;2022-07-05T06:15:29;30.90;1.00
3208;DHT22;1616;52.394;9.756;2022-07-05T06:17:55;31.40;1.00
3208;DHT22;1616;52.394;9.756;2022-07-05T06:20:25;31.90;1.00
3208;DHT22;1616;52.394;9.756;2022-07-05T06:22:52;32.40;1.00
3208;DHT22;1616;52.394;9.756;2022-07-05T06:25:18;32.70;1.00
3208;DHT22;1616;52.394;9.756;2022-07-05T06:27:46;33.00;1.00
3208;DHT22;1616;52.394;9.756;2022-07-05T06:30:17;33.10;1.00
3208;DHT22;1616;52.394;9.756;2022-07-05T06:32:47;33.30;1.00
3208;DHT22;1616;52.394;9.756;2022-07-05T06:35:13;33.40;1.00
3208;DHT22;1616;52.394;9.756;2022-07-05T06:37:44;33.60;1.00
3208;DHT22;1616;52.394;9.756;2022-07-05T06:40:12;33.70;1.00
3208;DHT22;1616;52.394;9.756;2022-07-05T06:42:38;33.80;1.00
3208;DHT22;1616;52.394;9.756;2022-07-05T06:45:05;34.00;1.00
3208;DHT22;1616;52.394;9.756;2022-07-05T06:47:32;34.20;1.00
3208;DHT22;1616;52.394;9.756;2022-07-05T06:49:58;34.30;1.00
3208;DHT22;1616;52.394;9.756;2022-07-05T06:52:24;34.50;1.00
3208;DHT22;1616;52.394;9.756;2022-07-05T06:54:50;34.60;1.00
3208;DHT22;1616;52.394;9.756;2022-07-05T06:57:21;34.70;1.00
3208;DHT22;1616;52.394;9.756;2022-07-05T06:59:49;34.90;1.00
3208;DHT22;1616;52.394;9.756;2022-07-05T07:02:15;34.90;1.00
3208;DHT22;1616;52.394;9.756;2022-07-05T07:04:41;34.90;1.00
3208;DHT22;1616;52.394;9.756;2022-07-05T07:07:06;34.80;1.00
3208;DHT22;1616;52.394;9.756;2022-07-05T07:09:55;34.80;1.00
3208;DHT22;1616;52.394;9.756;2022-07-05T07:12:21;34.80;1.00
3208;DHT22;1616;52.394;9.756;2022-07-05T07:14:46;34.80;1.00
3208;DHT22;1616;52.394;9.756;2022-07-05T07:17:12;34.80;1.00
3208;DHT22;1616;52.394;9.756;2022-07-05T07:19:40;34.70;1.00
3208;DHT22;1616;52.394;9.756;2022-07-05T07:22:05;34.70;1.00
3208;DHT22;1616;52.394;9.756;2022-07-05T07:24:31;34.70;1.00
3208;DHT22;1616;52.394;9.756;2022-07-05T07:26:56;34.80;1.00
3208;DHT22;1616;52.394;9.756;2022-07-05T07:29:29;34.90;1.00
3208;DHT22;1616;52.394;9.756;2022-07-05T07:31:55;35.00;1.00
3208;DHT22;1616;52.394;9.756;2022-07-05T07:34:21;35.10;1.00
3208;DHT22;1616;52.394;9.756;2022-07-05T07:36:48;35.20;1.00
3208;DHT22;1616;52.394;9.756;2022-07-05T07:39:13;35.20;1.00
3208;DHT22;1616;52.394;9.756;2022-07-05T07:41:39;35.30;1.00
3208;DHT22;1616;52.394;9.756;2022-07-05T07:44:05;35.20;1.00
3208;DHT22;1616;52.394;9.756;2022-07-05T07:46:31;34.90;1.00
3208;DHT22;1616;52.394;9.756;2022-07-05T07:48:56;34.50;1.00
3208;DHT22;1616;52.394;9.756;2022-07-05T07:51:23;34.00;1.00
3208;DHT22;1616;52.394;9.756;2022-07-05T07:53:48;33.50;1.00
3208;DHT22;1616;52.394;9.756;2022-07-05T07:56:14;33.10;1.00
3208;DHT22;1616;52.394;9.756;2022-07-05T07:58:40;32.70;1.00
3208;DHT22;1616;52.394;9.756;2022-07-05T08:01:05;32.50;1.00
3208;DHT22;1616;52.394;9.756;2022-07-05T08:03:40;32.50;1.00
3208;DHT22;1616;52.394;9.756;2022-07-05T08:06:10;32.70;1.00
3208;DHT22;1616;52.394;9.756;2022-07-05T08:08:37;33.20;1.00
3208;DHT22;1616;52.394;9.756;2022-07-05T08:11:05;33.70;1.00
3208;DHT22;1616;52.394;9.756;2022-07-05T08:13:31;34.20;1.00
3208;DHT22;1616;52.394;9.756;2022-07-05T08:15:57;34.70;1.00
3208;DHT22;1616;52.394;9.756;2022-07-05T08:18:23;35.20;1.00
3208;DHT22;1616;52.394;9.756;2022-07-05T08:21:07;35.60;1.00
3208;DHT22;1616;52.394;9.756;2022-07-05T08:23:51;35.80;1.00
3208;DHT22;1616;52.394;9.756;2022-07-05T08:26:17;36.00;1.00
3208;DHT22;1616;52.394;9.756;2022-07-05T08:28:42;36.10;1.00
3208;DHT22;1616;52.394;9.756;2022-07-05T08:31:08;36.30;1.00
3208;DHT22;1616;52.394;9.756;2022-07-05T08:33:34;36.40;1.00
3208;DHT22;1616;52.394;9.756;2022-07-05T08:36:00;36.50;1.00
3208;DHT22;1616;52.394;9.756;2022-07-05T08:38:26;36.50;1.00
3208;DHT22;1616;52.394;9.756;2022-07-05T08:40:55;36.50;1.00
3208;DHT22;1616;52.394;9.756;2022-07-05T08:43:22;36.50;1.00
3208;DHT22;1616;52.394;9.756;2022-07-05T08:45:49;36.50;1.00
3208;DHT22;1616;52.394;9.756;2022-07-05T08:48:19;36.00;1.00
3208;DHT22;1616;52.394;9.756;2022-07-05T08:50:45;35.60;1.00
3208;DHT22;1616;52.394;9.756;2022-07-05T08:53:15;35.50;1.00
3208;DHT22;1616;52.394;9.756;2022-07-05T08:55:41;35.40;1.00
3208;DHT22;1616;52.394;9.756;2022-07-05T08:58:06;35.60;1.00
3208;DHT22;1616;52.394;9.756;2022-07-05T09:00:32;35.30;1.00
3208;DHT22;1616;52.394;9.756;2022-07-05T09:02:58;34.90;1.00
3208;DHT22;1616;52.394;9.756;2022-07-05T09:05:25;34.40;1.00
3208;DHT22;1616;52.394;9.756;2022-07-05T09:07:58;33.80;1.00
3208;DHT22;1616;52.394;9.756;2022-07-05T09:10:29;33.50;1.00
3208;DHT22;1616;52.394;9.756;2022-07-05T09:12:56;33.70;1.00
3208;DHT22;1616;52.394;9.756;2022-07-05T09:15:25;34.10;1.00
3208;DHT22;1616;52.394;9.756;2022-07-05T09:17:51;34.70;1.00
3208;DHT22;1616;52.394;9.756;2022-07-05T09:20:17;34.90;1.00
3208;DHT22;1616;52.394;9.756;2022-07-05T09:22:54;35.20;1.00
3208;DHT22;1616;52.394;9.756;2022-07-05T09:25:26;34.90;1.00
3208;DHT22;1616;52.394;9.756;2022-07-05T09:28:01;34.70;1.00
3208;DHT22;1616;52.394;9.756;2022-07-05T09:30:34;34.50;1.00
3208;DHT22;1616;52.394;9.756;2022-07-05T09:33:10;34.30;1.00
3208;DHT22;1616;52.394;9.756;2022-07-05T09:35:38;33.80;1.00
3208;DHT22;1616;52.394;9.756;2022-07-05T09:38:07;33.80;1.00
3208;DHT22;1616;52.394;9.756;2022-07-05T09:40:54;33.90;1.00
3208;DHT22;1616;52.394;9.756;2022-07-05T09:43:24;34.10;1.00
3208;DHT22;1616;52.394;9.756;2022-07-05T09:46:02;34.40;1.00
3208;DHT22;1616;52.394;9.756;2022-07-05T09:48:29;34.70;1.00
3208;DHT22;1616;52.394;9.756;2022-07-05T09:51:12;34.90;1.00
3208;DHT22;1616;52.394;9.756;2022-07-05T09:53:48;35.30;1.00
3208;DHT22;1616;52.394;9.756;2022-07-05T09:56:14;35.80;1.00
3208;DHT22;1616;52.394;9.756;2022-07-05T09:58:40;35.70;1.00
3208;DHT22;1616;52.394;9.756;2022-07-05T10:01:28;35.70;1.00
3208;DHT22;1616;52.394;9.756;2022-07-05T10:06:23;35.60;1.00
3208;DHT22;1616;52.394;9.756;2022-07-05T10:08:50;35.70;1.00
3208;DHT22;1616;52.394;9.756;2022-07-05T10:11:19;35.70;1.00
3208;DHT22;1616;52.394;9.756;2022-07-05T10:13:50;35.80;1.00
3208;DHT22;1616;52.394;9.756;2022-07-05T10:16:16;35.80;1.00
3208;DHT22;1616;52.394;9.756;2022-07-05T10:18:46;35.70;1.00
3208;DHT22;1616;52.394;9.756;2022-07-05T10:21:14;35.80;1.00
3208;DHT22;1616;52.394;9.756;2022-07-05T10:23:48;36.00;1.00
3208;DHT22;1616;52.394;9.756;2022-07-05T10:26:16;35.70;1.00
3208;DHT22;1616;52.394;9.756;2022-07-05T10:28:45;35.10;1.00
3208;DHT22;1616;52.394;9.756;2022-07-05T10:31:12;34.60;1.00
3208;DHT22;1616;52.394;9.756;2022-07-05T10:33:39;33.90;1.00
3208;DHT22;1616;52.394;9.756;2022-07-05T10:36:05;33.10;1.00
3208;DHT22;1616;52.394;9.756;2022-07-05T10:38:35;32.50;1.00
3208;DHT22;1616;52.394;9.756;2022-07-05T10:41:03;32.50;1.00
3208;DHT22;1616;52.394;9.756;2022-07-05T10:43:30;32.90;1.00
3208;DHT22;1616;52.394;9.756;2022-07-05T10:45:56;33.30;1.00
3208;DHT22;1616;52.394;9.756;2022-07-05T10:48:23;33.60;1.00
3208;DHT22;1616;52.394;9.756;2022-07-05T10:50:53;33.80;1.00
3208;DHT22;1616;52.394;9.756;2022-07-05T10:53:21;33.90;1.00
3208;DHT22;1616;52.394;9.756;2022-07-05T10:55:51;33.50;1.00
3208;DHT22;1616;52.394;9.756;2022-07-05T10:58:18;33.60;1.00
3208;DHT22;1616;52.394;9.756;2022-07-05T11:00:46;34.10;1.00
3208;DHT22;1616;52.394;9.756;2022-07-05T11:03:37;34.60;1.00
3208;DHT22;1616;52.394;9.756;2022-07-05T11:06:04;35.30;1.00
3208;DHT22;1616;52.394;9.756;2022-07-05T11:08:31;36.00;1.00
3208;DHT22;1616;52.394;9.756;2022-07-05T11:11:16;36.30;1.00
3208;DHT22;1616;52.394;9.756;2022-07-05T11:13:48;35.90;1.00
3208;DHT22;1616;52.394;9.756;2022-07-05T11:16:25;35.60;1.00
3208;DHT22;1616;52.394;9.756;2022-07-05T11:18:54;35.20;1.00
3208;DHT22;1616;52.394;9.756;2022-07-05T11:21:29;34.60;1.00
3208;DHT22;1616;52.394;9.756;2022-07-05T11:24:27;34.20;1.00
3208;DHT22;1616;52.394;9.756;2022-07-05T11:26:57;33.50;1.00
3208;DHT22;1616;52.394;9.756;2022-07-05T11:29:54;33.50;1.00
3208;DHT22;1616;52.394;9.756;2022-07-05T11:34:55;32.70;1.00
3208;DHT22;1616;52.394;9.756;2022-07-05T11:37:25;32.60;1.00
3208;DHT22;1616;52.394;9.756;2022-07-05T11:42:33;32.20;1.00
3208;DHT22;1616;52.394;9.756;2022-07-05T11:45:10;31.80;1.00
3208;DHT22;1616;52.394;9.756;2022-07-05T11:47:36;31.60;1.00
3208;DHT22;1616;52.394;9.756;2022-07-05T11:50:02;31.90;1.00
3208;DHT22;1616;52.394;9.756;2022-07-05T11:52:34;32.50;1.00
3208;DHT22;1616;52.394;9.756;2022-07-05T11:55:05;33.00;1.00
3208;DHT22;1616;52.394;9.756;2022-07-05T11:57:31;33.40;1.00
3208;DHT22;1616;52.394;9.756;2022-07-05T11:59:58;33.90;1.00
3208;DHT22;1616;52.394;9.756;2022-07-05T12:02:23;34.20;1.00
3208;DHT22;1616;52.394;9.756;2022-07-05T12:04:51;34.60;1.00
3208;DHT22;1616;52.394;9.756;2022-07-05T12:07:27;35.20;1.00
3208;DHT22;1616;52.394;9.756;2022-07-05T12:09:53;35.60;1.00
3208;DHT22;1616;52.394;9.756;2022-07-05T12:12:37;35.30;1.00
3208;DHT22;1616;52.394;9.756;2022-07-05T12:15:17;34.60;1.00
3208;DHT22;1616;52.394;9.756;2022-07-05T12:17:47;33.80;1.00
3208;DHT22;1616;52.394;9.756;2022-07-05T12:20:15;33.20;1.00
3208;DHT22;1616;52.394;9.756;2022-07-05T12:22:45;32.60;1.00
3208;DHT22;1616;52.394;9.756;2022-07-05T12:25:16;32.10;1.00
3208;DHT22;1616;52.394;9.756;2022-07-05T12:27:43;31.80;1.00
3208;DHT22;1616;52.394;9.756;2022-07-05T12:30:11;31.40;1.00
3208;DHT22;1616;52.394;9.756;2022-07-05T12:38:10;30.50;1.00
3208;DHT22;1616;52.394;9.756;2022-07-05T12:40:37;32.30;1.00
3208;DHT22;1616;52.394;9.756;2022-07-05T12:43:12;30.70;1.00
3208;DHT22;1616;52.394;9.756;2022-07-05T12:45:40;31.00;1.00
3208;DHT22;1616;52.394;9.756;2022-07-05T12:48:07;31.10;1.00
3208;DHT22;1616;52.394;9.756;2022-07-05T12:50:50;31.10;1.00
3208;DHT22;1616;52.394;9.756;2022-07-05T12:53:17;31.30;1.00
3208;DHT22;1616;52.394;9.756;2022-07-05T12:56:06;31.60;1.00
3208;DHT22;1616;52.394;9.756;2022-07-05T12:58:52;31.90;1.00
3208;DHT22;1616;52.394;9.756;2022-07-05T13:01:20;32.40;1.00
3208;DHT22;1616;52.394;9.756;2022-07-05T13:04:16;33.00;1.00
3208;DHT22;1616;52.394;9.756;2022-07-05T13:06:50;33.50;1.00
3208;DHT22;1616;52.394;9.756;2022-07-05T13:14:41;34.30;1.00
3208;DHT22;1616;52.394;9.756;2022-07-05T13:17:12;34.10;1.00
3208;DHT22;1616;52.394;9.756;2022-07-05T13:19:40;33.60;1.00
3208;DHT22;1616;52.394;9.756;2022-07-05T13:22:06;33.30;1.00
3208;DHT22;1616;52.394;9.756;2022-07-05T13:24:32;32.90;1.00
3208;DHT22;1616;52.394;9.756;2022-07-05T13:26:59;32.60;1.00
3208;DHT22;1616;52.394;9.756;2022-07-05T13:29:25;32.50;1.00
3208;DHT22;1616;52.394;9.756;2022-07-05T13:31:51;32.30;1.00
3208;DHT22;1616;52.394;9.756;2022-07-05T13:34:17;31.90;1.00
3208;DHT22;1616;52.394;9.756;2022-07-05T13:36:44;31.60;1.00
3208;DHT22;1616;52.394;9.756;2022-07-05T13:39:13;31.20;1.00
3208;DHT22;1616;52.394;9.756;2022-07-05T13:41:39;31.00;1.00
3208;DHT22;1616;52.394;9.756;2022-07-05T13:44:04;30.70;1.00
3208;DHT22;1616;52.394;9.756;2022-07-05T13:46:30;30.40;1.00
3208;DHT22;1616;52.394;9.756;2022-07-05T13:48:56;30.30;1.00
3208;DHT22;1616;52.394;9.756;2022-07-05T13:51:22;30.20;1.00
3208;DHT22;1616;52.394;9.756;2022-07-05T13:53:48;30.30;1.00
3208;DHT22;1616;52.394;9.756;2022-07-05T13:56:13;30.40;1.00
3208;DHT22;1616;52.394;9.756;2022-07-05T13:58:39;30.50;1.00
3208;DHT22;1616;52.394;9.756;2022-07-05T14:01:05;30.60;1.00
3208;DHT22;1616;52.394;9.756;2022-07-05T14:03:31;30.60;1.00
3208;DHT22;1616;52.394;9.756;2022-07-05T14:05:57;30.40;1.00
3208;DHT22;1616;52.394;9.756;2022-07-05T14:08:23;30.10;1.00
3208;DHT22;1616;52.394;9.756;2022-07-05T14:10:54;30.00;1.00
3208;DHT22;1616;52.394;9.756;2022-07-05T14:13:21;29.80;1.00
3208;DHT22;1616;52.394;9.756;2022-07-05T14:15:47;29.60;1.00
3208;DHT22;1616;52.394;9.756;2022-07-05T14:18:17;29.60;1.00
3208;DHT22;1616;52.394;9.756;2022-07-05T14:20:45;29.50;1.00
3208;DHT22;1616;52.394;9.756;2022-07-05T14:23:11;29.40;1.00
3208;DHT22;1616;52.394;9.756;2022-07-05T14:25:38;29.30;1.00
3208;DHT22;1616;52.394;9.756;2022-07-05T14:28:04;29.20;1.00
3208;DHT22;1616;52.394;9.756;2022-07-05T14:30:37;29.10;1.00
3208;DHT22;1616;52.394;9.756;2022-07-05T14:33:04;29.10;1.00
3208;DHT22;1616;52.394;9.756;2022-07-05T14:35:30;29.20;1.00
3208;DHT22;1616;52.394;9.756;2022-07-05T14:37:57;29.20;1.00
3208;DHT22;1616;52.394;9.756;2022-07-05T14:40:23;29.20;1.00
3208;DHT22;1616;52.394;9.756;2022-07-05T14:42:53;29.10;1.00
3208;DHT22;1616;52.394;9.756;2022-07-05T14:45:22;28.90;1.00
3208;DHT22;1616;52.394;9.756;2022-07-05T14:47:48;28.90;1.00
3208;DHT22;1616;52.394;9.756;2022-07-05T14:50:14;28.70;1.00
3208;DHT22;1616;52.394;9.756;2022-07-05T14:52:40;28.70;1.00
3208;DHT22;1616;52.394;9.756;2022-07-05T14:55:07;28.70;1.00
3208;DHT22;1616;52.394;9.756;2022-07-05T14:57:33;28.60;1.00
3208;DHT22;1616;52.394;9.756;2022-07-05T14:59:59;28.60;1.00
3208;DHT22;1616;52.394;9.756;2022-07-05T15:02:24;28.60;1.00
3208;DHT22;1616;52.394;9.756;2022-07-05T15:04:50;28.60;1.00
3208;DHT22;1616;52.394;9.756;2022-07-05T15:07:16;28.50;1.00
3208;DHT22;1616;52.394;9.756;2022-07-05T15:09:41;28.40;1.00
3208;DHT22;1616;52.394;9.756;2022-07-05T15:12:07;28.30;1.00
3208;DHT22;1616;52.394;9.756;2022-07-05T15:14:33;28.20;1.00
3208;DHT22;1616;52.394;9.756;2022-07-05T15:16:59;28.10;1.00
3208;DHT22;1616;52.394;9.756;2022-07-05T15:19:24;28.00;1.00
3208;DHT22;1616;52.394;9.756;2022-07-05T15:21:50;27.90;1.00
3208;DHT22;1616;52.394;9.756;2022-07-05T15:24:16;27.80;1.00
3208;DHT22;1616;52.394;9.756;2022-07-05T15:26:43;27.70;1.00
3208;DHT22;1616;52.394;9.756;2022-07-05T15:29:09;27.50;1.00
3208;DHT22;1616;52.394;9.756;2022-07-05T15:31:36;27.40;1.00
3208;DHT22;1616;52.394;9.756;2022-07-05T15:34:03;27.40;1.00
3208;DHT22;1616;52.394;9.756;2022-07-05T15:36:29;27.40;1.00
3208;DHT22;1616;52.394;9.756;2022-07-05T15:38:59;27.40;1.00
3208;DHT22;1616;52.394;9.756;2022-07-05T15:41:27;27.50;1.00
3208;DHT22;1616;52.394;9.756;2022-07-05T15:43:53;27.60;1.00
3208;DHT22;1616;52.394;9.756;2022-07-05T15:46:19;27.60;1.00
3208;DHT22;1616;52.394;9.756;2022-07-05T15:48:46;27.60;1.00
3208;DHT22;1616;52.394;9.756;2022-07-05T15:51:14;27.60;1.00
3208;DHT22;1616;52.394;9.756;2022-07-05T15:53:42;27.60;1.00
3208;DHT22;1616;52.394;9.756;2022-07-05T15:56:08;27.60;1.00
3208;DHT22;1616;52.394;9.756;2022-07-05T15:58:34;27.50;1.00
3208;DHT22;1616;52.394;9.756;2022-07-05T16:01:01;27.50;1.00
3208;DHT22;1616;52.394;9.756;2022-07-05T16:03:29;27.50;1.00
3208;DHT22;1616;52.394;9.756;2022-07-05T16:05:59;27.50;1.00
3208;DHT22;1616;52.394;9.756;2022-07-05T16:08:25;27.40;1.00
3208;DHT22;1616;52.394;9.756;2022-07-05T16:10:52;27.40;1.00
3208;DHT22;1616;52.394;9.756;2022-07-05T16:13:17;27.30;1.00
3208;DHT22;1616;52.394;9.756;2022-07-05T16:15:45;27.20;1.00
3208;DHT22;1616;52.394;9.756;2022-07-05T16:18:30;27.20;1.00
3208;DHT22;1616;52.394;9.756;2022-07-05T16:20:57;27.20;1.00
3208;DHT22;1616;52.394;9.756;2022-07-05T16:23:29;27.10;1.00
3208;DHT22;1616;52.394;9.756;2022-07-05T16:25:55;27.10;1.00
3208;DHT22;1616;52.394;9.756;2022-07-05T16:28:23;27.10;1.00
3208;DHT22;1616;52.394;9.756;2022-07-05T16:30:50;27.10;1.00
3208;DHT22;1616;52.394;9.756;2022-07-05T16:33:15;27.00;1.00
3208;DHT22;1616;52.394;9.756;2022-07-05T16:35:41;26.80;1.00
3208;DHT22;1616;52.394;9.756;2022-07-05T16:38:07;26.80;1.00
3208;DHT22;1616;52.394;9.756;2022-07-05T16:40:33;26.70;1.00
3208;DHT22;1616;52.394;9.756;2022-07-05T16:42:58;26.70;1.00
3208;DHT22;1616;52.394;9.756;2022-07-05T16:45:24;26.70;1.00